sensor_id;sensor_type;location;lat;lon;timestamp;pressure;altitude;pressure_sealevel;temperature;humidity
78685;BME280;68002;52.310;6.990;2023-11-21T00:00:18;100664.38;;;7.87;100.00
78685;BME280;68002;52.310;6.990;2023-11-21T00:02:43;100671.41;;;7.88;100.00
78685;BME280;68002;52.310;6.990;2023-11-21T00:05:09;100667.75;;;7.89;100.00
78685;BME280;68002;52.310;6.990;2023-11-21T00:07:38;100670.44;;;7.89;100.00
78685;BME280;68002;52.310;6.990;2023-11-21T00:10:04;100672.38;;;7.87;100.00
78685;BME280;68002;52.310;6.990;2023-11-21T00:12:29;100668.28;;;7.83;100.00
78685;BME280;68002;52.310;6.990;2023-11-21T00:14:54;100659.59;;;7.81;100.00
78685;BME280;68002;52.310;6.990;2023-11-21T00:17:19;100664.06;;;7.81;100.00
78685;BME280;68002;52.310;6.990;2023-11-21T00:19:44;100672.03;;;7.81;100.00
78685;BME280;68002;52.310;6.990;2023-11-21T00:22:09;100674.56;;;7.82;100.00
78685;BME280;68002;52.310;6.990;2023-11-21T00:24:34;100675.56;;;7.81;100.00
78685;BME280;68002;52.310;6.990;2023-11-21T00:27:00;100671.91;;;7.82;100.00
78685;BME280;68002;52.310;6.990;2023-11-21T00:29:25;100671.91;;;7.82;100.00
78685;BME280;68002;52.310;6.990;2023-11-21T00:31:50;100678.09;;;7.83;100.00
78685;BME280;68002;52.310;6.990;2023-11-21T00:34:15;100667.44;;;7.83;100.00
78685;BME280;68002;52.310;6.990;2023-11-21T00:36:40;100670.22;;;7.81;100.00
78685;BME280;68002;52.310;6.990;2023-11-21T00:39:05;100671.91;;;7.82;100.00
78685;BME280;68002;52.310;6.990;2023-11-21T00:41:30;100666.72;;;7.81;100.00
78685;BME280;68002;52.310;6.990;2023-11-21T00:43:56;100671.91;;;7.82;100.00
78685;BME280;68002;52.310;6.990;2023-11-21T00:46:21;100670.09;;;7.83;100.00
78685;BME280;68002;52.310;6.990;2023-11-21T00:48:46;100666.59;;;7.82;100.00
78685;BME280;68002;52.310;6.990;2023-11-21T00:51:11;100671.09;;;7.82;100.00
78685;BME280;68002;52.310;6.990;2023-11-21T00:53:36;100672.03;;;7.81;100.00
78685;BME280;68002;52.310;6.990;2023-11-21T00:56:01;100679.16;;;7.80;100.00
78685;BME280;68002;52.310;6.990;2023-11-21T00:58:26;100683.69;;;7.80;100.00
78685;BME280;68002;52.310;6.990;2023-11-21T01:00:51;100680.16;;;7.79;100.00
78685;BME280;68002;52.310;6.990;2023-11-21T01:03:17;100691.75;;;7.78;100.00
78685;BME280;68002;52.310;6.990;2023-11-21T01:05:42;100686.44;;;7.78;100.00
78685;BME280;68002;52.310;6.990;2023-11-21T01:08:07;100691.75;;;7.78;100.00
78685;BME280;68002;52.310;6.990;2023-11-21T01:10:32;100695.28;;;7.79;100.00
78685;BME280;68002;52.310;6.990;2023-11-21T01:12:57;100701.47;;;7.79;100.00
78685;BME280;68002;52.310;6.990;2023-11-21T01:15:22;100706.66;;;7.81;100.00
78685;BME280;68002;52.310;6.990;2023-11-21T01:17:48;100709.31;;;7.81;100.00
78685;BME280;68002;52.310;6.990;2023-11-21T01:20:13;100710.03;;;7.83;100.00
78685;BME280;68002;52.310;6.990;2023-11-21T01:22:38;100709.19;;;7.82;100.00
78685;BME280;68002;52.310;6.990;2023-11-21T01:25:04;100712.56;;;7.84;100.00
78685;BME280;68002;52.310;6.990;2023-11-21T01:27:29;100720.44;;;7.86;100.00
78685;BME280;68002;52.310;6.990;2023-11-21T01:29:54;100721.28;;;7.86;100.00
78685;BME280;68002;52.310;6.990;2023-11-21T01:32:19;100726.34;;;7.89;100.00
78685;BME280;68002;52.310;6.990;2023-11-21T01:34:44;100721.16;;;7.88;100.00
78685;BME280;68002;52.310;6.990;2023-11-21T01:37:09;100736.19;;;7.89;100.00
78685;BME280;68002;52.310;6.990;2023-11-21T01:39:34;100738.72;;;7.90;100.00
78685;BME280;68002;52.310;6.990;2023-11-21T01:42:00;100740.38;;;7.91;100.00
78685;BME280;68002;52.310;6.990;2023-11-21T01:44:25;100742.94;;;7.93;100.00
78685;BME280;68002;52.310;6.990;2023-11-21T01:46:50;100745.59;;;7.93;100.00
78685;BME280;68002;52.310;6.990;2023-11-21T01:49:15;100744.75;;;7.92;100.00
78685;BME280;68002;52.310;6.990;2023-11-21T01:51:41;100747.16;;;7.95;100.00
78685;BME280;68002;52.310;6.990;2023-11-21T01:54:06;100752.50;;;7.95;100.00
78685;BME280;68002;52.310;6.990;2023-11-21T01:56:31;100754.22;;;7.96;100.00
78685;BME280;68002;52.310;6.990;2023-11-21T01:58:57;100750.69;;;7.96;100.00
78685;BME280;68002;52.310;6.990;2023-11-21T02:01:22;100753.22;;;7.97;100.00
78685;BME280;68002;52.310;6.990;2023-11-21T02:03:47;100748.03;;;7.96;100.00
78685;BME280;68002;52.310;6.990;2023-11-21T02:06:12;100752.22;;;7.98;100.00
78685;BME280;68002;52.310;6.990;2023-11-21T02:08:37;100752.22;;;7.98;100.00
78685;BME280;68002;52.310;6.990;2023-11-21T02:11:02;100752.22;;;7.98;100.00
78685;BME280;68002;52.310;6.990;2023-11-21T02:13:27;100749.34;;;8.01;100.00
78685;BME280;68002;52.310;6.990;2023-11-21T02:15:53;100758.19;;;8.02;100.00
78685;BME280;68002;52.310;6.990;2023-11-21T02:18:18;100755.41;;;8.03;100.00
78685;BME280;68002;52.310;6.990;2023-11-21T02:20:43;100760.47;;;8.06;100.00
78685;BME280;68002;52.310;6.990;2023-11-21T02:23:08;100759.59;;;8.06;100.00
78685;BME280;68002;52.310;6.990;2023-11-21T02:25:33;100766.66;;;8.07;100.00
78685;BME280;68002;52.310;6.990;2023-11-21T02:28:02;100773.53;;;8.09;100.00
78685;BME280;68002;52.310;6.990;2023-11-21T02:30:27;100768.19;;;8.09;100.00
78685;BME280;68002;52.310;6.990;2023-11-21T02:32:52;100765.53;;;8.09;100.00
78685;BME280;68002;52.310;6.990;2023-11-21T02:35:18;100762.88;;;8.09;100.00
78685;BME280;68002;52.310;6.990;2023-11-21T02:37:43;100756.59;;;8.10;100.00
78685;BME280;68002;52.310;6.990;2023-11-21T02:40:09;100758.25;;;8.11;100.00
78685;BME280;68002;52.310;6.990;2023-11-21T02:42:34;100759.84;;;8.14;100.00
78685;BME280;68002;52.310;6.990;2023-11-21T02:44:59;100761.66;;;8.13;100.00
78685;BME280;68002;52.310;6.990;2023-11-21T02:47:24;100770.38;;;8.15;100.00
78685;BME280;68002;52.310;6.990;2023-11-21T02:49:49;100758.75;;;8.17;100.00
78685;BME280;68002;52.310;6.990;2023-11-21T02:52:14;100757.03;;;8.15;100.00
78685;BME280;68002;52.310;6.990;2023-11-21T02:54:40;100765.88;;;8.16;100.00
78685;BME280;68002;52.310;6.990;2023-11-21T02:57:05;100767.56;;;8.17;100.00
78685;BME280;68002;52.310;6.990;2023-11-21T02:59:30;100770.09;;;8.18;100.00
78685;BME280;68002;52.310;6.990;2023-11-21T03:01:55;100766.75;;;8.17;100.00
78685;BME280;68002;52.310;6.990;2023-11-21T03:04:20;100770.09;;;8.18;100.00
78685;BME280;68002;52.310;6.990;2023-11-21T03:06:45;100775.34;;;8.20;100.00
78685;BME280;68002;52.310;6.990;2023-11-21T03:09:10;100780.75;;;8.18;100.00
78685;BME280;68002;52.310;6.990;2023-11-21T03:11:36;100788.66;;;8.20;100.00
78685;BME280;68002;52.310;6.990;2023-11-21T03:14:01;100785.13;;;8.20;100.00
78685;BME280;68002;52.310;6.990;2023-11-21T03:16:26;100786.09;;;8.18;100.00
78685;BME280;68002;52.310;6.990;2023-11-21T03:18:51;100785.25;;;8.18;100.00
78685;BME280;68002;52.310;6.990;2023-11-21T03:21:16;100787.94;;;8.18;100.00
78685;BME280;68002;52.310;6.990;2023-11-21T03:23:41;100789.75;;;8.18;100.00
78685;BME280;68002;52.310;6.990;2023-11-21T03:26:06;100793.13;;;8.20;100.00
78685;BME280;68002;52.310;6.990;2023-11-21T03:28:36;100794.81;;;8.21;100.00
78685;BME280;68002;52.310;6.990;2023-11-21T03:31:01;100803.66;;;8.21;100.00
78685;BME280;68002;52.310;6.990;2023-11-21T03:33:26;100804.50;;;8.22;100.00
78685;BME280;68002;52.310;6.990;2023-11-21T03:35:51;100812.50;;;8.22;100.00
78685;BME280;68002;52.310;6.990;2023-11-21T03:38:17;100807.31;;;8.20;100.00
78685;BME280;68002;52.310;6.990;2023-11-21T03:40:42;100808.13;;;8.21;100.00
78685;BME280;68002;52.310;6.990;2023-11-21T03:43:07;100804.50;;;8.22;100.00
78685;BME280;68002;52.310;6.990;2023-11-21T03:45:32;100804.50;;;8.22;100.00
78685;BME280;68002;52.310;6.990;2023-11-21T03:47:57;100804.38;;;8.23;100.00
78685;BME280;68002;52.310;6.990;2023-11-21T03:50:22;100803.53;;;8.23;100.00
78685;BME280;68002;52.310;6.990;2023-11-21T03:52:47;100806.31;;;8.21;100.00
78685;BME280;68002;52.310;6.990;2023-11-21T03:55:12;100801.97;;;8.20;100.00
78685;BME280;68002;52.310;6.990;2023-11-21T03:57:38;100809.38;;;8.17;100.00
78685;BME280;68002;52.310;6.990;2023-11-21T04:00:03;100804.88;;;8.17;100.00
78685;BME280;68002;52.310;6.990;2023-11-21T04:02:28;100804.88;;;8.17;100.00
78685;BME280;68002;52.310;6.990;2023-11-21T04:04:53;100806.81;;;8.15;100.00
78685;BME280;68002;52.310;6.990;2023-11-21T04:07:18;100808.50;;;8.16;100.00
78685;BME280;68002;52.310;6.990;2023-11-21T04:09:43;100810.31;;;8.15;100.00
78685;BME280;68002;52.310;6.990;2023-11-21T04:12:08;100818.31;;;8.15;100.00
78685;BME280;68002;52.310;6.990;2023-11-21T04:14:34;100812.25;;;8.13;100.00
78685;BME280;68002;52.310;6.990;2023-11-21T04:16:59;100816.63;;;8.14;100.00
78685;BME280;68002;52.310;6.990;2023-11-21T04:19:24;100818.31;;;8.15;100.00
78685;BME280;68002;52.310;6.990;2023-11-21T04:21:49;100828.97;;;8.15;100.00
78685;BME280;68002;52.310;6.990;2023-11-21T04:24:14;100826.31;;;8.15;100.00
78685;BME280;68002;52.310;6.990;2023-11-21T04:26:39;100824.63;;;8.14;100.00
78685;BME280;68002;52.310;6.990;2023-11-21T04:29:04;100837.09;;;8.14;100.00
78685;BME280;68002;52.310;6.990;2023-11-21T04:31:30;100855.75;;;8.14;100.00
78685;BME280;68002;52.310;6.990;2023-11-21T04:33:55;100845.09;;;8.14;100.00
78685;BME280;68002;52.310;6.990;2023-11-21T04:36:20;100850.41;;;8.14;100.00
78685;BME280;68002;52.310;6.990;2023-11-21T04:38:45;100855.63;;;8.15;100.00
78685;BME280;68002;52.310;6.990;2023-11-21T04:41:10;100858.28;;;8.15;100.00
78685;BME280;68002;52.310;6.990;2023-11-21T04:43:35;100863.47;;;8.17;100.00
78685;BME280;68002;52.310;6.990;2023-11-21T04:46:00;100863.47;;;8.17;100.00
78685;BME280;68002;52.310;6.990;2023-11-21T04:48:26;100869.94;;;8.14;100.00
78685;BME280;68002;52.310;6.990;2023-11-21T04:50:51;100873.41;;;8.15;100.00
78685;BME280;68002;52.310;6.990;2023-11-21T04:53:16;100872.59;;;8.14;100.00
78685;BME280;68002;52.310;6.990;2023-11-21T04:55:41;100875.25;;;8.14;100.00
78685;BME280;68002;52.310;6.990;2023-11-21T04:58:06;100881.41;;;8.15;100.00
78685;BME280;68002;52.310;6.990;2023-11-21T05:00:31;100882.66;;;8.11;100.00
78685;BME280;68002;52.310;6.990;2023-11-21T05:02:56;100887.00;;;8.12;100.00
78685;BME280;68002;52.310;6.990;2023-11-21T05:05:22;100891.47;;;8.11;100.00
78685;BME280;68002;52.310;6.990;2023-11-21T05:07:47;100885.53;;;8.08;100.00
78685;BME280;68002;52.310;6.990;2023-11-21T05:10:12;100889.06;;;8.08;100.00
78685;BME280;68002;52.310;6.990;2023-11-21T05:12:37;100897.78;;;8.10;100.00
78685;BME280;68002;52.310;6.990;2023-11-21T05:15:05;100898.63;;;8.11;100.00
78685;BME280;68002;52.310;6.990;2023-11-21T05:17:31;100895.97;;;8.11;100.00
78685;BME280;68002;52.310;6.990;2023-11-21T05:19:56;100905.03;;;8.08;100.00
78685;BME280;68002;52.310;6.990;2023-11-21T05:22:21;100911.34;;;8.07;100.00
78685;BME280;68002;52.310;6.990;2023-11-21T05:24:46;100909.63;;;8.06;100.00
78685;BME280;68002;52.310;6.990;2023-11-21T05:27:11;100916.69;;;8.07;100.00
78685;BME280;68002;52.310;6.990;2023-11-21T05:29:36;100923.94;;;8.05;100.00
78685;BME280;68002;52.310;6.990;2023-11-21T05:32:01;100928.41;;;8.05;100.00
78685;BME280;68002;52.310;6.990;2023-11-21T05:34:27;100930.22;;;8.04;100.00
78685;BME280;68002;52.310;6.990;2023-11-21T05:36:52;100935.66;;;8.03;100.00
78685;BME280;68002;52.310;6.990;2023-11-21T05:39:17;100942.81;;;8.02;100.00
78685;BME280;68002;52.310;6.990;2023-11-21T05:41:42;100948.25;;;8.01;100.00
78685;BME280;68002;52.310;6.990;2023-11-21T05:44:07;100945.47;;;8.02;100.00
78685;BME280;68002;52.310;6.990;2023-11-21T05:46:32;100946.31;;;8.03;100.00
78685;BME280;68002;52.310;6.990;2023-11-21T05:48:57;100949.97;;;8.02;100.00
78685;BME280;68002;52.310;6.990;2023-11-21T05:51:22;100951.66;;;8.03;100.00
78685;BME280;68002;52.310;6.990;2023-11-21T05:53:47;100945.47;;;8.02;100.00
78685;BME280;68002;52.310;6.990;2023-11-21T05:56:13;100946.31;;;8.03;100.00
78685;BME280;68002;52.310;6.990;2023-11-21T05:58:38;100956.13;;;8.02;100.00
78685;BME280;68002;52.310;6.990;2023-11-21T06:01:05;100953.47;;;8.02;100.00
78685;BME280;68002;52.310;6.990;2023-11-21T06:03:30;100956.13;;;8.02;100.00
78685;BME280;68002;52.310;6.990;2023-11-21T06:05:55;100963.16;;;8.03;100.00
78685;BME280;68002;52.310;6.990;2023-11-21T06:08:20;100970.44;;;8.01;100.00
78685;BME280;68002;52.310;6.990;2023-11-21T06:10:45;100972.34;;;7.99;100.00
78685;BME280;68002;52.310;6.990;2023-11-21T06:13:10;100966.28;;;7.97;100.00
78685;BME280;68002;52.310;6.990;2023-11-21T06:15:36;100970.91;;;7.95;100.00
78685;BME280;68002;52.310;6.990;2023-11-21T06:18:01;100974.63;;;7.93;100.00
78685;BME280;68002;52.310;6.990;2023-11-21T06:20:26;100986.88;;;7.95;100.00
78685;BME280;68002;52.310;6.990;2023-11-21T06:22:51;100988.81;;;7.93;100.00
78685;BME280;68002;52.310;6.990;2023-11-21T06:25:16;100989.66;;;7.94;100.00
78685;BME280;68002;52.310;6.990;2023-11-21T06:27:42;100993.41;;;7.91;100.00
78685;BME280;68002;52.310;6.990;2023-11-21T06:30:07;100987.13;;;7.92;100.00
78685;BME280;68002;52.310;6.990;2023-11-21T06:32:33;100998.72;;;7.91;100.00
78685;BME280;68002;52.310;6.990;2023-11-21T06:34:58;100996.06;;;7.91;100.00
78685;BME280;68002;52.310;6.990;2023-11-21T06:37:23;101009.38;;;7.91;100.00
78685;BME280;68002;52.310;6.990;2023-11-21T06:39:48;101007.56;;;7.92;100.00
78685;BME280;68002;52.310;6.990;2023-11-21T06:42:14;101017.97;;;7.95;100.00
78685;BME280;68002;52.310;6.990;2023-11-21T06:44:39;101016.03;;;7.97;100.00
78685;BME280;68002;52.310;6.990;2023-11-21T06:47:04;101021.16;;;8.00;100.00
78685;BME280;68002;52.310;6.990;2023-11-21T06:49:29;101028.03;;;8.02;100.00
78685;BME280;68002;52.310;6.990;2023-11-21T06:51:54;101023.44;;;8.04;100.00
78685;BME280;68002;52.310;6.990;2023-11-21T06:54:19;101028.56;;;8.07;100.00
78685;BME280;68002;52.310;6.990;2023-11-21T06:56:44;101033.63;;;8.10;100.00
78685;BME280;68002;52.310;6.990;2023-11-21T06:59:10;101041.38;;;8.13;100.00
78685;BME280;68002;52.310;6.990;2023-11-21T07:01:35;101044.06;;;8.13;100.00
78685;BME280;68002;52.310;6.990;2023-11-21T07:04:00;101050.00;;;8.17;100.00
78685;BME280;68002;52.310;6.990;2023-11-21T07:06:25;101056.19;;;8.18;100.00
78685;BME280;68002;52.310;6.990;2023-11-21T07:08:50;101043.94;;;8.15;100.00
78685;BME280;68002;52.310;6.990;2023-11-21T07:11:15;101057.25;;;8.15;100.00
78685;BME280;68002;52.310;6.990;2023-11-21T07:13:40;101063.31;;;8.17;100.00
78685;BME280;68002;52.310;6.990;2023-11-21T07:16:05;101066.84;;;8.18;100.00
78685;BME280;68002;52.310;6.990;2023-11-21T07:18:31;101072.16;;;8.18;100.00
78685;BME280;68002;52.310;6.990;2023-11-21T07:20:56;101074.81;;;8.18;100.00
78685;BME280;68002;52.310;6.990;2023-11-21T07:23:21;101073.16;;;8.17;100.00
78685;BME280;68002;52.310;6.990;2023-11-21T07:25:46;101084.50;;;8.18;100.00
78685;BME280;68002;52.310;6.990;2023-11-21T07:28:11;101084.50;;;8.18;100.00
78685;BME280;68002;52.310;6.990;2023-11-21T07:30:36;101092.41;;;8.20;100.00
78685;BME280;68002;52.310;6.990;2023-11-21T07:33:01;101096.88;;;8.20;100.00
78685;BME280;68002;52.310;6.990;2023-11-21T07:35:26;101099.41;;;8.21;100.00
78685;BME280;68002;52.310;6.990;2023-11-21T07:37:51;101112.63;;;8.23;100.00
78685;BME280;68002;52.310;6.990;2023-11-21T07:40:17;101111.56;;;8.25;100.00
78685;BME280;68002;52.310;6.990;2023-11-21T07:42:42;101114.00;;;8.28;100.00
78685;BME280;68002;52.310;6.990;2023-11-21T07:45:07;101119.94;;;8.32;100.00
78685;BME280;68002;52.310;6.990;2023-11-21T07:47:32;101123.34;;;8.34;100.00
78685;BME280;68002;52.310;6.990;2023-11-21T07:49:57;101131.13;;;8.37;100.00
78685;BME280;68002;52.310;6.990;2023-11-21T07:52:23;101132.06;;;8.36;100.00
78685;BME280;68002;52.310;6.990;2023-11-21T07:54:48;101134.53;;;8.39;100.00
78685;BME280;68002;52.310;6.990;2023-11-21T07:57:13;101140.34;;;8.44;100.00
78685;BME280;68002;52.310;6.990;2023-11-21T07:59:38;101147.84;;;8.50;100.00
78685;BME280;68002;52.310;6.990;2023-11-21T08:02:03;101149.44;;;8.52;100.00
78685;BME280;68002;52.310;6.990;2023-11-21T08:04:28;101151.03;;;8.55;100.00
78685;BME280;68002;52.310;6.990;2023-11-21T08:06:53;101159.03;;;8.55;100.00
78685;BME280;68002;52.310;6.990;2023-11-21T08:09:18;101150.78;;;8.58;100.00
78685;BME280;68002;52.310;6.990;2023-11-21T08:11:43;101159.50;;;8.60;100.00
78685;BME280;68002;52.310;6.990;2023-11-21T08:14:09;101152.25;;;8.62;100.00
78685;BME280;68002;52.310;6.990;2023-11-21T08:16:34;101168.97;;;8.64;100.00
78685;BME280;68002;52.310;6.990;2023-11-21T08:18:59;101170.66;;;8.65;100.00
78685;BME280;68002;52.310;6.990;2023-11-21T08:21:24;101182.31;;;8.64;100.00
78685;BME280;68002;52.310;6.990;2023-11-21T08:23:49;101178.91;;;8.62;100.00
78685;BME280;68002;52.310;6.990;2023-11-21T08:26:17;101184.97;;;8.64;100.00
78685;BME280;68002;52.310;6.990;2023-11-21T08:28:42;101188.38;;;8.66;100.00
78685;BME280;68002;52.310;6.990;2023-11-21T08:31:07;101192.72;;;8.67;100.00
78685;BME280;68002;52.310;6.990;2023-11-21T08:33:33;101187.25;;;8.68;100.00
78685;BME280;68002;52.310;6.990;2023-11-21T08:35:58;101192.72;;;8.67;100.00
78685;BME280;68002;52.310;6.990;2023-11-21T08:38:23;101204.13;;;8.69;100.00
78685;BME280;68002;52.310;6.990;2023-11-21T08:40:48;101196.72;;;8.72;100.00
78685;BME280;68002;52.310;6.990;2023-11-21T08:43:13;101203.78;;;8.73;100.00
78685;BME280;68002;52.310;6.990;2023-11-21T08:45:38;101208.13;;;8.74;100.00
78685;BME280;68002;52.310;6.990;2023-11-21T08:48:03;101210.06;;;8.72;100.00
78685;BME280;68002;52.310;6.990;2023-11-21T08:50:29;101208.25;;;8.73;100.00
78685;BME280;68002;52.310;6.990;2023-11-21T08:52:54;101214.34;;;8.75;100.00
78685;BME280;68002;52.310;6.990;2023-11-21T08:55:19;101211.28;;;8.79;100.00
78685;BME280;68002;52.310;6.990;2023-11-21T08:57:44;101211.28;;;8.79;100.00
78685;BME280;68002;52.310;6.990;2023-11-21T09:00:10;101213.84;;;8.81;100.00
78685;BME280;68002;52.310;6.990;2023-11-21T09:02:35;101216.41;;;8.82;100.00
78685;BME280;68002;52.310;6.990;2023-11-21T09:05:00;101223.56;;;8.82;100.00
78685;BME280;68002;52.310;6.990;2023-11-21T09:07:25;101226.97;;;8.84;100.00
78685;BME280;68002;52.310;6.990;2023-11-21T09:09:50;101237.16;;;8.90;100.00
78685;BME280;68002;52.310;6.990;2023-11-21T09:12:15;101249.88;;;8.97;100.00
78685;BME280;68002;52.310;6.990;2023-11-21T09:14:41;101252.94;;;9.04;100.00
78685;BME280;68002;52.310;6.990;2023-11-21T09:17:06;101248.56;;;9.03;100.00
78685;BME280;68002;52.310;6.990;2023-11-21T09:19:32;101257.28;;;9.05;100.00
78685;BME280;68002;52.310;6.990;2023-11-21T09:21:58;101251.75;;;9.08;100.00
78685;BME280;68002;52.310;6.990;2023-11-21T09:24:23;101257.28;;;9.05;100.00
78685;BME280;68002;52.310;6.990;2023-11-21T09:26:48;101260.09;;;9.03;100.00
78685;BME280;68002;52.310;6.990;2023-11-21T09:29:13;101272.09;;;9.09;100.00
78685;BME280;68002;52.310;6.990;2023-11-21T09:31:38;101268.34;;;9.11;100.00
78685;BME280;68002;52.310;6.990;2023-11-21T09:34:03;101282.31;;;9.15;100.00
78685;BME280;68002;52.310;6.990;2023-11-21T09:36:28;101280.38;;;9.17;100.00
78685;BME280;68002;52.310;6.990;2023-11-21T09:38:53;101287.28;;;9.20;100.00
78685;BME280;68002;52.310;6.990;2023-11-21T09:41:25;101280.38;;;9.17;100.00
78685;BME280;68002;52.310;6.990;2023-11-21T09:43:50;101287.88;;;9.23;100.00
78685;BME280;68002;52.310;6.990;2023-11-21T09:46:21;101287.78;;;9.25;100.00
78685;BME280;68002;52.310;6.990;2023-11-21T09:48:49;101291.81;;;9.30;100.00
78685;BME280;68002;52.310;6.990;2023-11-21T09:51:15;101298.09;;;9.29;100.00
78685;BME280;68002;52.310;6.990;2023-11-21T09:53:40;101290.22;;;9.28;100.00
78685;BME280;68002;52.310;6.990;2023-11-21T09:56:08;101298.09;;;9.29;100.00
78685;BME280;68002;52.310;6.990;2023-11-21T09:58:33;101290.69;;;9.33;100.00
78685;BME280;68002;52.310;6.990;2023-11-21T10:00:58;101297.75;;;9.34;100.00
78685;BME280;68002;52.310;6.990;2023-11-21T10:03:24;101301.75;;;9.39;100.00
78685;BME280;68002;52.310;6.990;2023-11-21T10:05:50;101306.22;;;9.39;100.00
78685;BME280;68002;52.310;6.990;2023-11-21T10:08:16;101303.69;;;9.37;100.00
78685;BME280;68002;52.310;6.990;2023-11-21T10:10:45;101315.09;;;9.39;100.00
78685;BME280;68002;52.310;6.990;2023-11-21T10:13:11;101318.00;;;9.47;100.00
78685;BME280;68002;52.310;6.990;2023-11-21T10:15:36;101323.00;;;9.52;100.00
78685;BME280;68002;52.310;6.990;2023-11-21T10:18:02;101320.94;;;9.55;100.00
78685;BME280;68002;52.310;6.990;2023-11-21T10:20:28;101332.97;;;9.61;100.00
78685;BME280;68002;52.310;6.990;2023-11-21T10:22:53;101333.09;;;9.59;100.00
78685;BME280;68002;52.310;6.990;2023-11-21T10:25:18;101342.44;;;9.65;100.00
78685;BME280;68002;52.310;6.990;2023-11-21T10:27:46;101342.53;;;9.63;100.00
78685;BME280;68002;52.310;6.990;2023-11-21T10:30:11;101341.84;;;9.61;100.00
78685;BME280;68002;52.310;6.990;2023-11-21T10:32:36;101341.84;;;9.61;100.00
78685;BME280;68002;52.310;6.990;2023-11-21T10:35:01;101344.50;;;9.61;100.00
78685;BME280;68002;52.310;6.990;2023-11-21T10:37:26;101341.09;;;9.59;100.00
78685;BME280;68002;52.310;6.990;2023-11-21T10:39:55;101344.00;;;9.56;100.00
78685;BME280;68002;52.310;6.990;2023-11-21T10:42:21;101346.78;;;9.55;100.00
78685;BME280;68002;52.310;6.990;2023-11-21T10:44:46;101350.31;;;9.55;100.00
78685;BME280;68002;52.310;6.990;2023-11-21T10:47:12;101348.38;;;9.57;100.00
78685;BME280;68002;52.310;6.990;2023-11-21T10:49:37;101353.34;;;9.62;100.00
78685;BME280;68002;52.310;6.990;2023-11-21T10:52:02;101357.59;;;9.64;100.00
78685;BME280;68002;52.310;6.990;2023-11-21T10:54:27;101361.97;;;9.65;100.00
78685;BME280;68002;52.310;6.990;2023-11-21T10:57:01;101359.06;;;9.68;100.00
78685;BME280;68002;52.310;6.990;2023-11-21T10:59:29;101359.28;;;9.65;100.00
78685;BME280;68002;52.310;6.990;2023-11-21T11:01:54;101362.56;;;9.69;100.00
78685;BME280;68002;52.310;6.990;2023-11-21T11:04:22;101367.91;;;9.69;100.00
78685;BME280;68002;52.310;6.990;2023-11-21T11:06:49;101374.22;;;9.68;100.00
78685;BME280;68002;52.310;6.990;2023-11-21T11:09:15;101375.44;;;9.64;100.00
78685;BME280;68002;52.310;6.990;2023-11-21T11:11:41;101377.88;;;9.56;100.00
78685;BME280;68002;52.310;6.990;2023-11-21T11:14:08;101373.75;;;9.52;100.00
78685;BME280;68002;52.310;6.990;2023-11-21T11:16:35;101371.53;;;9.46;100.00
78685;BME280;68002;52.310;6.990;2023-11-21T11:19:01;101377.00;;;9.44;100.00
78685;BME280;68002;52.310;6.990;2023-11-21T11:21:43;101372.84;;;9.40;100.00
78685;BME280;68002;52.310;6.990;2023-11-21T11:27:01;101383.06;;;9.35;100.00
78685;BME280;68002;52.310;6.990;2023-11-21T11:29:33;101387.66;;;9.33;100.00
78685;BME280;68002;52.310;6.990;2023-11-21T11:32:12;101392.38;;;9.30;100.00
78685;BME280;68002;52.310;6.990;2023-11-21T11:34:43;101402.66;;;9.23;100.00
78685;BME280;68002;52.310;6.990;2023-11-21T11:37:10;101408.13;;;9.22;100.00
78685;BME280;68002;52.310;6.990;2023-11-21T11:39:41;101412.22;;;9.14;100.00
78685;BME280;68002;52.310;6.990;2023-11-21T11:42:07;101413.28;;;9.12;100.00
78685;BME280;68002;52.310;6.990;2023-11-21T11:47:12;101424.91;;;9.00;100.00
78685;BME280;68002;52.310;6.990;2023-11-21T11:49:38;101425.16;;;8.97;100.00
78685;BME280;68002;52.310;6.990;2023-11-21T11:54:46;101435.53;;;8.89;100.00
78685;BME280;68002;52.310;6.990;2023-11-21T11:57:13;101440.13;;;8.87;100.00
78685;BME280;68002;52.310;6.990;2023-11-21T12:02:33;101442.66;;;8.88;100.00
78685;BME280;68002;52.310;6.990;2023-11-21T12:04:59;101456.41;;;8.95;100.00
78685;BME280;68002;52.310;6.990;2023-11-21T12:07:24;101451.28;;;8.92;100.00
78685;BME280;68002;52.310;6.990;2023-11-21T12:09:49;101462.81;;;8.92;100.00
78685;BME280;68002;52.310;6.990;2023-11-21T12:12:14;101472.31;;;8.96;100.00
78685;BME280;68002;52.310;6.990;2023-11-21T12:14:39;101469.66;;;8.96;100.00
78685;BME280;68002;52.310;6.990;2023-11-21T12:17:05;101469.53;;;8.98;100.00
78685;BME280;68002;52.310;6.990;2023-11-21T12:19:30;101471.25;;;8.99;100.00
78685;BME280;68002;52.310;6.990;2023-11-21T12:21:55;101472.06;;;8.99;100.00
78685;BME280;68002;52.310;6.990;2023-11-21T12:24:20;101476.47;;;9.00;100.00
78685;BME280;68002;52.310;6.990;2023-11-21T12:26:45;101483.38;;;9.03;100.00
78685;BME280;68002;52.310;6.990;2023-11-21T12:29:10;101482.31;;;9.05;100.00
78685;BME280;68002;52.310;6.990;2023-11-21T12:31:35;101484.47;;;9.00;100.00
78685;BME280;68002;52.310;6.990;2023-11-21T12:34:01;101475.31;;;8.92;100.00
78685;BME280;68002;52.310;6.990;2023-11-21T12:36:26;101487.19;;;8.88;100.00
78685;BME280;68002;52.310;6.990;2023-11-21T12:38:51;101491.66;;;8.87;100.00
78685;BME280;68002;52.310;6.990;2023-11-21T12:41:16;101488.13;;;8.87;100.00
78685;BME280;68002;52.310;6.990;2023-11-21T12:43:41;101487.88;;;8.79;100.00
78685;BME280;68002;52.310;6.990;2023-11-21T12:46:07;101502.03;;;8.79;100.00
78685;BME280;68002;52.310;6.990;2023-11-21T12:48:32;101503.44;;;8.72;100.00
78685;BME280;68002;52.310;6.990;2023-11-21T12:50:57;101513.72;;;8.66;100.00